Appleyard, Washington
Current Conditions -  °F | °C
As of 3:55 PM on Saturday 25 Oct 2014 (Local Time) from KEAT Reporting Station
Overcast Overcast  
Wind Chill: 13°   Ceiling: 8500
Heat Index: 13°   Visibility: 10mi
Dew Point:   Wind: 8mph
Humidity: 69%   Direction: 170°S
Pressure: 29.48"   Gusts: NA
Location:  47.3635°N, 120.348°W
Report Text: KEAT 252255Z AUTO 17007KT 10SM OVC085 13/08 A2948 RMK AO2 RAB2158E40 SLP983 P0000 T01330078
Loading
Personal Weather Stations






























Interactive Weather Map
Tropical Storm Tracking
New forecast layout! Learn more

10-Day Weather Forecast

Advertisements
Track Severe Weather on mobile